Accueil
METAR-TAF:

METAR-TAF

Aéroports :

Aéroport international de Conakry

Conakry, Guinée

latitude: 09-34N, longitude: 013-37W, altitude: 26 m

Observation

Le bulletin a été fait il y a 55 minutes, à 06:00 UTC
Vent 8 kt de est/nord-est
Température 23°C
Humidité 94%
Pression 1011 hPa
Visibilité: 5000 m
brume

METAR: GUCY 230600Z 06008KT 5000 BR NSC 23/22 Q1011 NOSIG

Heure: 06:55 (06:55 UTC)

Prévision

Le bulletin a été fait il y a 13 heures et 55 minutes, à 17:00 UTC
Prévision valable du 22 à 18 UTC au 23 à 24 UTC
Vent 6 kt de nord/nord-ouest
Visibilité: 5000 m
brume sèche
Probabilité 30% :
Temporairement
du 23 à 01 UTC au 23 à 08 UTC
Vent 2 kt de direction variable
Visibilité: 2500 m
brume

TAF: GUCY 221700Z 2218/2324 34006KT 5000 HZ NSC PROB30 TEMPO 2301/2308 VRB02KT 2500 BR NSC

Observations et prévisions météorologiques de plus de 4000 aéroports (messages METAR et TAF).

Les stations disponibles sont représentées par des disques jaunes et rouges sur la carte.

Passer la souris dessus pour voir le nom de la station.

Cliquer dessus pour voir les observations et prévisions météorologiques.

Pour changer de carte: cliquez sur les boutons verts avec une croix noire pour zoomer, sur le bouton vert avec un tiret pour effectuer un zoom arrière, ou sur les flèches vertes pour les cartes adjacentes.


METAR-TAF: